Aérodrome :
LOGIN :

S'inscrire | Disclaimer

   EN    FR    IT 

 










Légende :    VFR   VFR Marginal   IFR   IFR Intensif   IFR Très Intensif
Visi : 
Plafond : 
>= 8 km
>= 3000ft
5 à 8 km
1000 à 3000 ft
1500m à 5 km
500 à 1000 ft
800 à 1500m
200 à 500 ft
< 800m
< 200 ft
Symboles :   Orages  Brouillard  Fortes neiges  Fortes précipitations  Vent > 20 kt
SIGMETs :   Divers  Orages  Givrage  Turbulence  Onde Orograph.  Cendres Volcan.






- Altitude de l'aérodrome : 461 ft
- Code IATA : WIE


ETOU - Wiesbaden Army

DERNIER METAR :
  • 172131Z AUTO 30005KT 9999 FEW018 SCT023 BKN047 06/01 A3058 RMK AO2 SLP364

METARs EXPIRÉS :
  • 172126Z AUTO 29004KT 9999 SCT018 BKN023 BKN046 06/01 A3058 RMK AO2 CIG 017V023 BKN023 V OVC SLP364
  • 172056Z AUTO 27005KT 9999 OVC017 06/01 A3058 RMK AO2 SLP364 T00600013 53014
  • 171956Z AUTO 25005KT 9999 OVC017 06/01 A3056 RMK AO2 SLP357 T00570010
  • 171856Z AUTO 25006KT 9999 BKN017 OVC032 06/00 A3054 RMK AO2 BKN V OVC SLP350 T00580003

TAF AMD TAF ETOU
Valide du 17 à 12h jusqu'au 18 à 11h UTC


171248Z 1712/1811 30012KT 9999 BKN020 650303 QNH3048INS
BECMG 1717/1718 32006KT 8000 BR BKN015 650302 QNH3050INS
BECMG 1800/1801 34006KT 5000 BR SCT008 BKN010 610201 QNH3056INS
TEMPO 1801/1807 3200 BR
BECMG 1808/1809 02006KT 9000 BR SCT010 BKN020 QNH3058INS
BECMG 1809/1810 08009KT 9999 NSW SCT020 BKN030 QNH3060INS TX06/1714Z TN02/1804Z LAST NO AMDS AFT 1713 NEXT 1805



MET'MAP, la Météo Aéronautique d'un coup d'oeil ! - Copyright ORBIFLY Décembre 2007 - Disclaimer

ORBIFLY MET'MAP TEAM :

Programmation & Développement : Alexandra Zaïnal
Sur une idée originale de : Baudouin d'Aumeries
Assistance à la programmation : Marc-Olivier Méhu
Soutien technique & logistique : Manuel Goepfert

Contact : metmap@orbifly.com




SOURCES & CREDITS :

   NOAA